createdAt,value
2023-01-10T00:00:38.067Z,8.20
2023-01-10T00:03:08.152Z,8.20
2023-01-10T00:05:35.934Z,8.20
2023-01-10T00:08:03.498Z,10.00
2023-01-10T00:10:31.419Z,8.20
2023-01-10T00:13:16.991Z,8.20
2023-01-10T00:15:43.665Z,8.10
2023-01-10T00:18:10.470Z,8.10
2023-01-10T00:20:37.556Z,7.90
2023-01-10T00:23:04.584Z,8.00
2023-01-10T00:25:33.299Z,8.00
2023-01-10T00:28:23.323Z,8.00
2023-01-10T00:31:16.817Z,8.00
2023-01-10T00:33:43.433Z,8.00
2023-01-10T00:36:10.873Z,8.00
2023-01-10T00:38:37.478Z,7.90
2023-01-10T00:41:24.433Z,8.00
2023-01-10T00:43:56.850Z,8.00
2023-01-10T00:46:24.359Z,8.00
2023-01-10T00:48:51.088Z,8.00
2023-01-10T00:51:17.684Z,8.10
2023-01-10T00:53:44.306Z,8.20
2023-01-10T00:56:10.945Z,8.10
2023-01-10T00:58:37.536Z,8.10
2023-01-10T01:01:04.232Z,8.10
2023-01-10T01:03:30.917Z,8.10
2023-01-10T01:05:57.561Z,8.10
2023-01-10T01:08:24.164Z,6.60
2023-01-10T01:10:51.793Z,8.20
2023-01-10T01:13:21.421Z,7.10
2023-01-10T01:15:48.659Z,8.20
2023-01-10T01:18:20.677Z,8.10
2023-01-10T01:20:48.171Z,8.20
2023-01-10T01:23:15.838Z,8.10
2023-01-10T01:25:42.577Z,8.00
2023-01-10T01:28:12.065Z,8.00
2023-01-10T01:30:38.909Z,8.00
2023-01-10T01:33:05.517Z,8.00
2023-01-10T01:35:33.341Z,8.00
2023-01-10T01:37:59.916Z,7.90
2023-01-10T01:40:26.676Z,7.90
2023-01-10T01:42:55.836Z,7.80
2023-01-10T01:45:34.668Z,7.70
2023-01-10T01:48:41.138Z,7.60
2023-01-10T01:51:25.306Z,7.60
2023-01-10T01:54:05.695Z,7.60
2023-01-10T01:57:03.833Z,7.60
2023-01-10T01:59:38.170Z,7.60
2023-01-10T02:02:23.374Z,6.10
2023-01-10T02:05:10.319Z,7.80
2023-01-10T02:07:40.476Z,7.70
2023-01-10T02:10:15.643Z,7.70
2023-01-10T02:12:44.784Z,7.60
2023-01-10T02:15:12.156Z,7.70
2023-01-10T02:17:39.266Z,7.50
2023-01-10T02:20:13.527Z,7.50
2023-01-10T02:22:49.144Z,7.50
2023-01-10T02:25:34.499Z,7.40
2023-01-10T02:28:30.513Z,7.60
2023-01-10T02:31:21.932Z,7.70
2023-01-10T02:34:21.154Z,7.70
2023-01-10T02:37:05.036Z,7.80
2023-01-10T02:39:43.741Z,7.80
2023-01-10T02:42:29.336Z,7.80
2023-01-10T02:45:23.802Z,7.80
2023-01-10T02:47:50.675Z,7.60
2023-01-10T02:50:43.502Z,7.60
2023-01-10T02:53:19.147Z,6.00
2023-01-10T02:55:57.802Z,7.60
2023-01-10T02:58:50.652Z,7.60
2023-01-10T03:01:43.233Z,7.60
2023-01-10T03:04:59.337Z,7.60
2023-01-10T03:07:50.982Z,7.70
2023-01-10T03:10:46.939Z,7.70
2023-01-10T03:13:29.297Z,7.70
2023-01-10T03:15:57.535Z,7.70
2023-01-10T03:18:32.734Z,7.60
2023-01-10T03:21:02.675Z,7.60
2023-01-10T03:23:32.043Z,7.60
2023-01-10T03:25:58.755Z,7.60
2023-01-10T03:28:42.991Z,7.60
2023-01-10T03:31:24.222Z,7.70
2023-01-10T03:33:51.019Z,7.70
2023-01-10T03:36:38.830Z,7.70
2023-01-10T03:39:18.461Z,7.80
2023-01-10T03:42:05.748Z,7.70
2023-01-10T03:44:49.087Z,7.60
2023-01-10T03:47:28.041Z,7.50
2023-01-10T03:50:05.503Z,7.50
2023-01-10T03:52:35.186Z,7.50
2023-01-10T03:55:03.443Z,7.60
2023-01-10T03:57:30.058Z,7.20
2023-01-10T03:59:58.194Z,7.60
2023-01-10T04:02:29.766Z,7.50
2023-01-10T04:04:56.846Z,7.40
2023-01-10T04:07:23.838Z,7.30
2023-01-10T04:09:50.476Z,7.30
2023-01-10T04:12:17.706Z,7.20
2023-01-10T04:14:47.201Z,7.10
2023-01-10T04:17:15.474Z,7.20
2023-01-10T04:19:42.366Z,7.20
2023-01-10T04:22:10.310Z,7.20
2023-01-10T04:24:37.537Z,7.10
2023-01-10T04:27:04.804Z,7.10
2023-01-10T04:29:31.418Z,7.10
2023-01-10T04:31:58.340Z,7.10
2023-01-10T04:34:25.984Z,7.10
2023-01-10T04:36:52.611Z,7.10
2023-01-10T04:39:19.250Z,7.10
2023-01-10T04:41:45.832Z,7.00
2023-01-10T04:44:12.854Z,7.10
2023-01-10T04:46:39.498Z,7.10
2023-01-10T04:49:07.259Z,7.20
2023-01-10T04:51:33.895Z,7.30
2023-01-10T04:54:00.460Z,7.20
2023-01-10T04:56:27.166Z,7.30
2023-01-10T04:58:54.205Z,7.30
2023-01-10T05:01:23.467Z,7.30
2023-01-10T05:03:51.792Z,7.20
2023-01-10T05:06:19.639Z,7.30
2023-01-10T05:08:46.328Z,7.30
2023-01-10T05:11:13.529Z,7.30
2023-01-10T05:13:41.183Z,7.30
2023-01-10T05:16:08.140Z,7.40
2023-01-10T05:18:34.909Z,7.40
2023-01-10T05:21:03.198Z,7.30
2023-01-10T05:23:30.022Z,7.30
2023-01-10T05:25:57.002Z,7.40
2023-01-10T05:28:24.217Z,7.40
2023-01-10T05:30:51.209Z,7.30
2023-01-10T05:33:17.817Z,7.30
2023-01-10T05:35:44.431Z,7.30
2023-01-10T05:38:11.015Z,7.40
2023-01-10T05:40:37.674Z,7.40
2023-01-10T05:43:04.505Z,7.40
2023-01-10T05:45:31.213Z,7.40
2023-01-10T05:47:57.844Z,7.40
2023-01-10T05:50:24.602Z,7.30
2023-01-10T05:52:51.201Z,7.30
2023-01-10T05:55:17.812Z,7.30
2023-01-10T05:57:44.441Z,7.40
2023-01-10T06:00:11.712Z,7.20
2023-01-10T06:02:38.664Z,7.30
2023-01-10T06:05:05.800Z,7.20
2023-01-10T06:07:32.441Z,7.20
2023-01-10T06:09:59.120Z,7.20
2023-01-10T06:12:25.718Z,7.20
2023-01-10T06:14:52.359Z,7.20
2023-01-10T06:17:18.975Z,7.40
2023-01-10T06:19:45.560Z,7.30
2023-01-10T06:22:12.210Z,7.20
2023-01-10T06:24:38.807Z,7.10
2023-01-10T06:27:05.884Z,7.00
2023-01-10T06:29:33.165Z,7.10
2023-01-10T06:32:00.335Z,7.00
2023-01-10T06:34:26.931Z,7.00
2023-01-10T06:36:53.530Z,6.90
2023-01-10T06:39:20.172Z,7.00
2023-01-10T06:41:46.785Z,7.00
2023-01-10T06:44:13.818Z,6.90
2023-01-10T06:46:40.403Z,7.00
2023-01-10T06:49:06.978Z,7.00
2023-01-10T06:51:33.805Z,8.40
2023-01-10T06:54:00.567Z,9.30
2023-01-10T06:56:27.183Z,9.90
2023-01-10T06:58:53.799Z,9.80
2023-01-10T07:01:21.793Z,9.80
2023-01-10T07:03:49.038Z,9.70
2023-01-10T07:06:15.689Z,9.50
2023-01-10T07:08:45.621Z,9.30
2023-01-10T07:11:16.627Z,8.50
2023-01-10T07:13:43.264Z,7.90
2023-01-10T07:16:13.806Z,7.50
2023-01-10T07:18:42.070Z,7.40
2023-01-10T07:21:10.291Z,7.40
2023-01-10T07:23:38.111Z,7.30
2023-01-10T07:26:06.879Z,7.20
2023-01-10T07:28:36.720Z,7.10
2023-01-10T07:31:05.568Z,7.10
2023-01-10T07:33:32.570Z,7.10
2023-01-10T07:36:01.038Z,7.00
2023-01-10T07:38:28.184Z,7.10
2023-01-10T07:40:54.983Z,7.00
2023-01-10T07:43:21.694Z,7.00
2023-01-10T07:45:48.409Z,7.00
2023-01-10T07:48:15.033Z,7.00
2023-01-10T07:50:41.654Z,7.00
2023-01-10T07:53:08.570Z,7.00
2023-01-10T07:55:38.887Z,7.00
2023-01-10T07:58:07.928Z,7.10
2023-01-10T08:00:35.526Z,7.10
2023-01-10T08:03:02.586Z,7.00
2023-01-10T08:05:29.454Z,7.10
2023-01-10T08:07:59.907Z,7.10
2023-01-10T08:10:27.319Z,7.10
2023-01-10T08:12:53.953Z,7.10
2023-01-10T08:15:20.812Z,7.10
2023-01-10T08:17:47.560Z,7.20
2023-01-10T08:20:14.283Z,7.20
2023-01-10T08:22:40.960Z,7.20
2023-01-10T08:25:08.106Z,7.20
2023-01-10T08:27:34.874Z,7.10
2023-01-10T08:30:01.491Z,7.20
2023-01-10T08:32:28.131Z,7.20
2023-01-10T08:34:54.826Z,7.30
2023-01-10T08:37:21.448Z,7.30
2023-01-10T08:39:48.031Z,7.30
2023-01-10T08:42:16.475Z,7.30
2023-01-10T08:44:43.067Z,7.40
2023-01-10T08:47:09.655Z,7.40
2023-01-10T08:49:36.248Z,7.50
2023-01-10T08:52:03.149Z,9.20
2023-01-10T08:54:29.790Z,7.50
2023-01-10T08:56:56.379Z,7.50
2023-01-10T08:59:22.977Z,7.50
2023-01-10T09:01:49.613Z,7.50
2023-01-10T09:04:17.119Z,7.40
2023-01-10T09:06:43.805Z,7.40
2023-01-10T09:09:10.609Z,7.40
2023-01-10T09:11:37.195Z,7.40
2023-01-10T09:14:03.947Z,7.40
2023-01-10T09:16:30.623Z,7.40
2023-01-10T09:18:57.545Z,7.40
2023-01-10T09:21:24.172Z,7.40
2023-01-10T09:23:50.818Z,7.40
2023-01-10T09:26:17.439Z,7.50
2023-01-10T09:28:44.059Z,7.60
2023-01-10T09:31:11.933Z,7.60
2023-01-10T09:33:46.744Z,7.60
2023-01-10T09:36:15.461Z,7.60
2023-01-10T09:38:42.349Z,7.60
2023-01-10T09:41:33.607Z,7.70
2023-01-10T09:44:04.020Z,7.80
2023-01-10T09:47:08.490Z,7.80
2023-01-10T09:49:54.444Z,7.80
2023-01-10T09:52:28.443Z,7.80
2023-01-10T09:54:58.681Z,7.70
2023-01-10T09:57:25.908Z,7.60
2023-01-10T09:59:53.907Z,7.60
2023-01-10T10:02:32.678Z,7.50
2023-01-10T10:05:09.041Z,7.40
2023-01-10T10:07:36.128Z,7.40
2023-01-10T10:10:04.199Z,7.50
2023-01-10T10:12:37.085Z,7.60
2023-01-10T10:15:12.764Z,7.60
2023-01-10T10:17:45.997Z,7.70
2023-01-10T10:20:36.075Z,7.70
2023-01-10T10:23:08.866Z,7.60
2023-01-10T10:25:52.537Z,7.70
2023-01-10T10:28:46.573Z,7.60
2023-01-10T10:32:00.376Z,7.60
2023-01-10T10:34:37.621Z,7.50
2023-01-10T10:37:32.861Z,7.60
2023-01-10T10:40:20.066Z,7.50
2023-01-10T10:42:50.950Z,7.70
2023-01-10T10:45:39.564Z,7.70
2023-01-10T10:48:55.736Z,7.60
2023-01-10T10:51:45.170Z,7.70
2023-01-10T10:54:13.748Z,7.60
2023-01-10T10:56:41.005Z,7.60
2023-01-10T10:59:07.676Z,7.60
2023-01-10T11:01:34.418Z,7.60
2023-01-10T11:04:06.648Z,7.60
2023-01-10T11:06:35.434Z,7.60
2023-01-10T11:09:04.765Z,7.60
2023-01-10T11:11:45.635Z,7.70
2023-01-10T11:14:13.271Z,7.70
2023-01-10T11:16:43.633Z,7.70
2023-01-10T11:19:23.774Z,7.70
2023-01-10T11:21:56.773Z,7.70
2023-01-10T11:24:49.326Z,7.80
2023-01-10T11:27:22.750Z,7.80
2023-01-10T11:30:03.791Z,7.90
2023-01-10T11:32:47.863Z,7.90
2023-01-10T11:35:30.475Z,7.90
2023-01-10T11:38:05.450Z,7.90
2023-01-10T11:40:35.187Z,7.80
2023-01-10T11:43:24.130Z,7.90
2023-01-10T11:46:02.512Z,7.90
2023-01-10T11:49:03.791Z,7.90
2023-01-10T11:51:30.443Z,8.00
2023-01-10T11:54:11.707Z,8.10
2023-01-10T11:56:43.250Z,8.10
2023-01-10T11:59:16.291Z,8.10
2023-01-10T12:01:46.955Z,8.10
2023-01-10T12:04:20.802Z,7.50
2023-01-10T12:06:53.234Z,8.00
2023-01-10T12:09:42.928Z,8.00
2023-01-10T12:12:25.538Z,8.00
2023-01-10T12:14:54.083Z,8.10
2023-01-10T12:17:35.642Z,8.10
2023-01-10T12:20:04.625Z,8.10
2023-01-10T12:22:39.448Z,8.10
2023-01-10T12:25:21.660Z,8.20
2023-01-10T12:27:50.381Z,8.20
2023-01-10T12:30:38.771Z,8.20
2023-01-10T12:33:15.696Z,8.20
2023-01-10T12:35:50.596Z,8.10
2023-01-10T12:38:45.559Z,8.10
2023-01-10T12:41:36.600Z,8.20
2023-01-10T12:44:12.057Z,8.30
2023-01-10T12:47:09.141Z,8.30
2023-01-10T12:49:49.080Z,9.80
2023-01-10T12:52:31.315Z,8.30
2023-01-10T12:54:58.667Z,8.30
2023-01-10T12:57:35.538Z,8.30
2023-01-10T13:00:05.930Z,8.30
2023-01-10T13:02:43.844Z,8.40
2023-01-10T13:05:21.012Z,8.40
2023-01-10T13:07:49.923Z,8.40
2023-01-10T13:10:21.216Z,8.50
2023-01-10T13:13:11.743Z,8.40
2023-01-10T13:15:47.764Z,8.50
2023-01-10T13:18:29.924Z,9.80
2023-01-10T13:21:09.029Z,8.50
2023-01-10T13:23:49.551Z,8.50
2023-01-10T13:26:16.535Z,8.50
2023-01-10T13:28:56.926Z,8.60
2023-01-10T13:31:31.725Z,9.70
2023-01-10T13:34:11.686Z,8.60
2023-01-10T13:37:09.695Z,8.50
2023-01-10T13:39:39.967Z,8.50
2023-01-10T13:42:25.576Z,8.50
2023-01-10T13:45:01.240Z,8.50
2023-01-10T13:47:39.904Z,8.60
2023-01-10T13:50:25.319Z,8.60
2023-01-10T13:52:52.735Z,8.50
2023-01-10T13:55:24.102Z,8.50
2023-01-10T13:57:53.988Z,8.50
2023-01-10T14:00:45.408Z,8.60
2023-01-10T14:03:40.757Z,8.60
2023-01-10T14:06:19.217Z,8.60
2023-01-10T14:08:51.833Z,8.60
2023-01-10T14:11:18.675Z,8.60
2023-01-10T14:13:54.244Z,8.60
2023-01-10T14:16:36.240Z,8.50
2023-01-10T14:19:07.170Z,8.40
2023-01-10T14:21:42.817Z,8.50
2023-01-10T14:24:25.745Z,8.40
2023-01-10T14:26:57.378Z,8.40
2023-01-10T14:29:28.313Z,8.50
2023-01-10T14:31:56.055Z,8.60
2023-01-10T14:34:26.274Z,11.80
2023-01-10T14:37:03.474Z,11.50
2023-01-10T14:39:31.030Z,11.30
2023-01-10T14:42:08.271Z,10.10
2023-01-10T14:44:46.020Z,9.50
2023-01-10T14:47:42.182Z,9.10
2023-01-10T14:50:28.740Z,8.90
2023-01-10T14:52:56.322Z,8.70
2023-01-10T14:55:23.247Z,8.60
2023-01-10T14:57:58.059Z,8.60
2023-01-10T15:00:30.996Z,8.60
2023-01-10T15:03:01.508Z,8.50
2023-01-10T15:05:30.878Z,8.50
2023-01-10T15:08:26.376Z,8.50
2023-01-10T15:10:57.000Z,8.50
2023-01-10T15:13:28.144Z,8.50
2023-01-10T15:15:55.496Z,8.40
2023-01-10T15:18:33.901Z,8.40
2023-01-10T15:21:01.278Z,8.50
2023-01-10T15:23:39.672Z,8.40
2023-01-10T15:26:10.551Z,8.50
2023-01-10T15:28:37.687Z,8.40
2023-01-10T15:31:06.342Z,8.40
2023-01-10T15:33:35.849Z,8.40
2023-01-10T15:36:07.027Z,9.20
2023-01-10T15:38:37.957Z,8.40
2023-01-10T15:41:06.722Z,8.40
2023-01-10T15:43:35.272Z,8.40
2023-01-10T15:46:04.534Z,8.40
2023-01-10T15:48:36.604Z,8.40
2023-01-10T15:51:19.824Z,8.40
2023-01-10T15:53:50.930Z,8.50
2023-01-10T15:56:22.040Z,8.30
2023-01-10T15:58:49.327Z,8.30
2023-01-10T16:01:16.925Z,8.30
2023-01-10T16:03:47.414Z,8.40
2023-01-10T16:06:24.132Z,8.40
2023-01-10T16:08:54.352Z,8.40
2023-01-10T16:11:58.703Z,8.30
2023-01-10T16:14:25.551Z,8.40
2023-01-10T16:16:52.256Z,8.20
2023-01-10T16:19:18.864Z,8.30
2023-01-10T16:21:57.838Z,8.40
2023-01-10T16:24:27.970Z,8.40
2023-01-10T16:26:56.796Z,8.30
2023-01-10T16:29:24.307Z,8.30
2023-01-10T16:31:52.252Z,8.40
2023-01-10T16:34:19.905Z,8.30
2023-01-10T16:36:46.690Z,8.40
2023-01-10T16:39:19.824Z,8.40
2023-01-10T16:42:06.246Z,8.30
2023-01-10T16:44:34.476Z,8.30
2023-01-10T16:47:01.798Z,8.30
2023-01-10T16:49:28.469Z,8.40
2023-01-10T16:51:57.378Z,8.40
2023-01-10T16:54:28.279Z,8.40
2023-01-10T16:56:55.378Z,8.40
2023-01-10T16:59:21.977Z,8.40
2023-01-10T17:01:55.253Z,8.40
2023-01-10T17:04:28.095Z,8.30
2023-01-10T17:06:56.511Z,8.30
2023-01-10T17:09:30.570Z,8.30
2023-01-10T17:12:03.431Z,8.40
2023-01-10T17:14:32.442Z,8.30
2023-01-10T17:16:59.104Z,8.30
2023-01-10T17:19:25.737Z,8.30
2023-01-10T17:21:52.611Z,8.30
2023-01-10T17:24:19.606Z,8.40
2023-01-10T17:26:46.252Z,8.80
2023-01-10T17:29:12.918Z,8.90
2023-01-10T17:31:39.659Z,9.00
2023-01-10T17:34:07.014Z,9.00
2023-01-10T17:36:38.568Z,9.00
2023-01-10T17:39:06.193Z,9.00
2023-01-10T17:41:33.245Z,9.00
2023-01-10T17:43:59.910Z,9.00
2023-01-10T17:46:26.537Z,9.00
2023-01-10T17:48:53.219Z,9.00
2023-01-10T17:51:19.853Z,9.00
2023-01-10T17:53:46.486Z,9.00
2023-01-10T17:56:13.232Z,9.00
2023-01-10T17:58:39.878Z,8.80
2023-01-10T18:01:06.660Z,8.90
2023-01-10T18:03:33.905Z,9.00
2023-01-10T18:06:00.512Z,9.00
2023-01-10T18:08:27.548Z,9.00
2023-01-10T18:11:00.300Z,8.90
2023-01-10T18:13:33.339Z,8.80
2023-01-10T18:16:01.421Z,8.90
2023-01-10T18:18:28.556Z,8.70
2023-01-10T18:20:58.127Z,8.80
2023-01-10T18:23:26.696Z,8.80
2023-01-10T18:26:02.567Z,8.80
2023-01-10T18:28:41.104Z,8.80
2023-01-10T18:31:14.182Z,8.80
2023-01-10T18:33:40.841Z,8.90
2023-01-10T18:36:11.697Z,8.80
2023-01-10T18:38:38.302Z,8.90
2023-01-10T18:41:05.089Z,9.10
2023-01-10T18:43:32.867Z,9.30
2023-01-10T18:46:05.391Z,9.20
2023-01-10T18:48:32.489Z,9.10
2023-01-10T18:51:00.944Z,9.30
2023-01-10T18:53:28.069Z,9.20
2023-01-10T18:55:59.612Z,9.10
2023-01-10T18:58:28.448Z,7.90
2023-01-10T19:00:55.104Z,8.70
2023-01-10T19:03:22.029Z,8.60
2023-01-10T19:05:48.955Z,8.60
2023-01-10T19:08:16.129Z,8.40
2023-01-10T19:11:03.596Z,8.50
2023-01-10T19:13:31.369Z,8.50
2023-01-10T19:16:29.230Z,8.50
2023-01-10T19:19:09.259Z,8.50
2023-01-10T19:21:38.853Z,8.50
2023-01-10T19:24:19.242Z,8.40
2023-01-10T19:26:45.921Z,8.40
2023-01-10T19:29:12.578Z,8.40
2023-01-10T19:31:39.584Z,8.40
2023-01-10T19:34:06.241Z,8.40
2023-01-10T19:36:34.628Z,8.40
2023-01-10T19:39:01.848Z,8.30
2023-01-10T19:41:29.705Z,8.30
2023-01-10T19:43:58.178Z,8.40
2023-01-10T19:46:25.688Z,8.70
2023-01-10T19:48:54.625Z,8.90
2023-01-10T19:51:21.212Z,8.90
2023-01-10T19:53:47.871Z,8.90
2023-01-10T19:56:23.181Z,8.80
2023-01-10T19:58:50.871Z,8.80
2023-01-10T20:01:19.920Z,8.70
2023-01-10T20:03:47.708Z,8.70
2023-01-10T20:06:17.264Z,8.50
2023-01-10T20:08:47.572Z,8.50
2023-01-10T20:11:14.947Z,8.40
2023-01-10T20:13:44.926Z,7.60
2023-01-10T20:16:17.421Z,8.20
2023-01-10T20:18:44.406Z,8.20
2023-01-10T20:21:13.170Z,8.20
2023-01-10T20:23:40.835Z,8.10
2023-01-10T20:26:16.867Z,8.10
2023-01-10T20:28:45.500Z,8.10
2023-01-10T20:31:17.901Z,8.30
2023-01-10T20:33:44.973Z,8.20
2023-01-10T20:36:14.822Z,8.20
2023-01-10T20:38:41.623Z,8.10
2023-01-10T20:41:11.918Z,8.10
2023-01-10T20:43:39.233Z,8.00
2023-01-10T20:46:11.544Z,8.00
2023-01-10T20:48:39.926Z,8.00
2023-01-10T20:51:07.648Z,8.10
2023-01-10T20:53:35.132Z,8.10
2023-01-10T20:56:07.154Z,8.20
2023-01-10T20:58:39.603Z,8.10
2023-01-10T21:01:28.660Z,8.10
2023-01-10T21:03:59.921Z,8.20
2023-01-10T21:06:26.681Z,8.10
2023-01-10T21:08:53.431Z,8.10
2023-01-10T21:11:21.069Z,8.10
2023-01-10T21:13:48.090Z,8.10
2023-01-10T21:16:19.277Z,8.00
2023-01-10T21:18:46.584Z,8.00
2023-01-10T21:21:16.134Z,8.00
2023-01-10T21:23:42.865Z,8.00
2023-01-10T21:26:12.107Z,8.00
2023-01-10T21:28:45.894Z,8.00
2023-01-10T21:31:15.722Z,6.60
2023-01-10T21:33:42.740Z,8.00
2023-01-10T21:36:09.911Z,8.00
2023-01-10T21:38:36.572Z,8.10
2023-01-10T21:41:35.918Z,8.00
2023-01-10T21:44:04.096Z,8.50
2023-01-10T21:46:30.758Z,8.30
2023-01-10T21:48:57.584Z,6.90
2023-01-10T21:51:24.175Z,8.10
2023-01-10T21:53:50.783Z,8.00
2023-01-10T21:56:17.468Z,7.90
2023-01-10T21:58:44.086Z,7.90
2023-01-10T22:01:10.759Z,7.90
2023-01-10T22:03:37.410Z,7.70
2023-01-10T22:06:04.321Z,7.80
2023-01-10T22:08:30.957Z,7.80
2023-01-10T22:10:57.553Z,7.80
2023-01-10T22:13:27.023Z,7.80
2023-01-10T22:16:00.486Z,7.80
2023-01-10T22:18:28.274Z,7.80
2023-01-10T22:20:55.855Z,7.70
2023-01-10T22:23:23.858Z,7.70
2023-01-10T22:26:01.868Z,7.70
2023-01-10T22:28:28.900Z,7.70
2023-01-10T22:30:55.933Z,7.60
2023-01-10T22:33:23.687Z,7.60
2023-01-10T22:35:50.394Z,7.60
2023-01-10T22:38:17.048Z,7.70
2023-01-10T22:40:43.707Z,7.70
2023-01-10T22:43:11.091Z,7.70
2023-01-10T22:45:41.770Z,7.70
2023-01-10T22:48:09.174Z,7.80
2023-01-10T22:50:35.830Z,7.80
2023-01-10T22:53:03.535Z,7.70
2023-01-10T22:55:30.214Z,8.90
2023-01-10T22:57:56.838Z,7.60
2023-01-10T23:00:23.561Z,7.60
2023-01-10T23:02:50.199Z,7.50
2023-01-10T23:05:16.901Z,7.60
2023-01-10T23:07:43.469Z,7.60
2023-01-10T23:10:28.329Z,7.80
2023-01-10T23:12:55.641Z,7.60
2023-01-10T23:15:22.253Z,7.60
2023-01-10T23:17:48.845Z,7.60
2023-01-10T23:20:16.718Z,7.60
2023-01-10T23:22:43.379Z,7.60
2023-01-10T23:25:10.028Z,7.60
2023-01-10T23:27:38.307Z,7.60
2023-01-10T23:30:09.590Z,7.60
2023-01-10T23:32:36.306Z,7.60
2023-01-10T23:35:03.675Z,7.60
2023-01-10T23:37:30.262Z,7.70
2023-01-10T23:39:56.881Z,7.70
2023-01-10T23:42:23.484Z,7.70
2023-01-10T23:44:50.101Z,7.60
2023-01-10T23:47:16.703Z,7.50
2023-01-10T23:49:43.296Z,7.50
2023-01-10T23:52:09.955Z,7.60
2023-01-10T23:54:36.709Z,7.50
2023-01-10T23:57:03.366Z,7.50
2023-01-10T23:59:30.035Z,7.60
